createdAt,value
2018-02-12T00:01:50.658Z,9.30
2018-02-12T00:04:18.277Z,12.13
2018-02-12T00:06:45.773Z,13.63
2018-02-12T00:09:13.238Z,10.77
2018-02-12T00:11:40.693Z,11.80
2018-02-12T00:14:08.929Z,10.63
2018-02-12T00:16:36.451Z,11.37
2018-02-12T00:19:03.942Z,9.37
2018-02-12T00:21:31.397Z,12.03
2018-02-12T00:23:58.898Z,14.90
2018-02-12T00:26:26.387Z,13.47
2018-02-12T00:28:53.973Z,11.87
2018-02-12T00:31:21.461Z,14.83
2018-02-12T00:33:48.944Z,16.37
2018-02-12T00:36:16.424Z,11.27
2018-02-12T00:38:43.926Z,15.87
2018-02-12T00:41:11.388Z,13.53
2018-02-12T00:43:38.851Z,14.57
2018-02-12T00:46:06.322Z,14.83
2018-02-12T00:48:33.844Z,13.30
2018-02-12T00:51:01.309Z,13.47
2018-02-12T00:53:28.779Z,16.33
2018-02-12T00:55:57.034Z,14.53
2018-02-12T00:58:24.509Z,12.07
2018-02-12T01:00:51.964Z,12.30
2018-02-12T01:03:19.489Z,10.43
2018-02-12T01:05:46.963Z,11.53
2018-02-12T01:08:14.464Z,12.57
2018-02-12T01:10:41.946Z,18.63
2018-02-12T01:13:10.134Z,12.73
2018-02-12T01:15:37.592Z,12.50
2018-02-12T01:18:05.116Z,11.03
2018-02-12T01:20:34.091Z,16.53
2018-02-12T01:23:01.548Z,17.70
2018-02-12T01:25:29.816Z,13.27
2018-02-12T01:27:57.406Z,12.70
2018-02-12T01:30:24.883Z,10.90
2018-02-12T01:32:52.376Z,10.47
2018-02-12T01:35:19.833Z,9.70
2018-02-12T01:37:47.360Z,11.33
2018-02-12T01:40:14.819Z,10.63
2018-02-12T01:42:42.280Z,13.00
2018-02-12T01:45:10.511Z,9.30
2018-02-12T01:47:37.969Z,6.40
2018-02-12T01:50:17.282Z,6.73
2018-02-12T01:52:44.753Z,3.90
2018-02-12T01:55:12.210Z,6.50
2018-02-12T01:57:39.717Z,5.47
2018-02-12T02:00:07.170Z,5.27
2018-02-12T02:02:34.680Z,7.47
2018-02-12T02:05:02.139Z,7.30
2018-02-12T02:07:29.617Z,8.73
2018-02-12T02:09:57.140Z,6.40
2018-02-12T02:12:24.598Z,6.70
2018-02-12T02:14:52.121Z,7.47
2018-02-12T02:17:19.574Z,9.47
2018-02-12T02:19:47.040Z,6.13
2018-02-12T02:22:15.256Z,6.70
2018-02-12T02:24:42.728Z,5.20
2018-02-12T02:27:10.993Z,8.20
2018-02-12T02:29:38.460Z,4.90
2018-02-12T02:32:05.961Z,8.97
2018-02-12T02:34:33.442Z,4.10
2018-02-12T02:37:00.933Z,8.13
2018-02-12T02:39:28.392Z,11.87
2018-02-12T02:41:55.854Z,9.63
2018-02-12T02:44:23.316Z,6.97
2018-02-12T02:46:50.786Z,8.43
2018-02-12T02:49:18.288Z,6.87
2018-02-12T02:51:45.771Z,4.73
2018-02-12T02:54:13.255Z,7.00
2018-02-12T02:56:40.737Z,7.73
2018-02-12T02:59:08.190Z,7.70
2018-02-12T03:01:35.679Z,6.63
2018-02-12T03:04:03.141Z,6.17
2018-02-12T03:06:31.392Z,8.57
2018-02-12T03:08:58.852Z,6.67
2018-02-12T03:11:26.356Z,4.53
2018-02-12T03:13:53.848Z,7.13
2018-02-12T03:16:21.303Z,8.07
2018-02-12T03:18:48.819Z,6.60
2018-02-12T03:21:16.297Z,9.57
2018-02-12T03:23:43.819Z,6.77
2018-02-12T03:26:11.282Z,7.93
2018-02-12T03:28:38.753Z,13.03
2018-02-12T03:31:06.214Z,10.73
2018-02-12T03:33:33.721Z,8.70
2018-02-12T03:36:01.200Z,7.13
2018-02-12T03:38:28.663Z,8.80
2018-02-12T03:40:56.176Z,10.67
2018-02-12T03:43:23.632Z,7.00
2018-02-12T03:45:51.697Z,11.73
2018-02-12T03:48:19.920Z,7.40
2018-02-12T03:50:48.172Z,8.00
2018-02-12T03:53:15.667Z,6.57
2018-02-12T03:55:43.125Z,7.67
2018-02-12T03:58:10.581Z,7.63
2018-02-12T04:00:38.841Z,9.23
2018-02-12T04:03:06.426Z,8.23
2018-02-12T04:05:33.929Z,7.90
2018-02-12T04:08:01.402Z,10.77
2018-02-12T04:10:28.863Z,12.87
2018-02-12T04:12:56.370Z,10.73
2018-02-12T04:15:23.850Z,8.67
2018-02-12T04:17:51.305Z,7.70
2018-02-12T04:20:18.838Z,10.90
2018-02-12T04:22:46.299Z,7.23
2018-02-12T04:25:13.760Z,7.40
2018-02-12T04:27:41.988Z,6.77
2018-02-12T04:30:09.444Z,8.80
2018-02-12T04:32:36.908Z,12.77
2018-02-12T04:35:04.426Z,11.40
2018-02-12T04:37:32.653Z,13.63
2018-02-12T04:40:00.172Z,12.60
2018-02-12T04:42:27.732Z,11.00
2018-02-12T04:44:55.190Z,12.93
2018-02-12T04:47:22.663Z,11.57
2018-02-12T04:49:50.124Z,14.10
2018-02-12T04:52:17.599Z,16.20
2018-02-12T04:54:45.063Z,15.93
2018-02-12T04:57:12.570Z,12.33
2018-02-12T04:59:40.032Z,12.43
2018-02-12T05:02:07.557Z,13.90
2018-02-12T05:04:35.028Z,15.40
2018-02-12T05:07:02.543Z,13.67
2018-02-12T05:09:30.022Z,12.73
2018-02-12T05:11:57.486Z,16.33
2018-02-12T05:14:25.720Z,15.90
2018-02-12T05:16:53.177Z,17.20
2018-02-12T05:19:20.741Z,15.27
2018-02-12T05:21:48.244Z,17.87
2018-02-12T05:24:15.708Z,10.50
2018-02-12T05:26:43.958Z,13.47
2018-02-12T05:29:11.439Z,17.60
2018-02-12T05:31:38.968Z,12.83
2018-02-12T05:34:06.617Z,15.67
2018-02-12T05:36:34.908Z,17.23
2018-02-12T05:39:02.382Z,16.20
2018-02-12T05:41:29.891Z,19.93
2018-02-12T05:43:57.439Z,18.13
2018-02-12T05:46:24.905Z,17.25
2018-02-12T05:48:52.413Z,13.60
2018-02-12T05:51:19.933Z,13.27
2018-02-12T05:53:47.402Z,14.13
2018-02-12T05:56:14.956Z,10.33
2018-02-12T05:58:42.460Z,9.00
2018-02-12T06:01:09.986Z,9.63
2018-02-12T06:03:37.461Z,7.97
2018-02-12T06:06:05.972Z,13.27
2018-02-12T06:08:33.440Z,12.47
2018-02-12T06:11:00.963Z,13.90
2018-02-12T06:13:28.421Z,9.90
2018-02-12T06:15:55.909Z,11.10
2018-02-12T06:18:23.528Z,7.00
2018-02-12T06:20:51.762Z,7.73
2018-02-12T06:23:19.233Z,10.20
2018-02-12T06:25:46.764Z,9.77
2018-02-12T06:28:14.337Z,10.20
2018-02-12T06:30:41.817Z,8.07
2018-02-12T06:33:09.817Z,5.67
2018-02-12T06:35:37.320Z,8.60
2018-02-12T06:38:05.225Z,8.33
2018-02-12T06:40:32.729Z,11.00
2018-02-12T06:43:00.979Z,8.83
2018-02-12T06:45:28.517Z,8.23
2018-02-12T06:47:55.975Z,7.33
2018-02-12T06:50:23.470Z,9.87
2018-02-12T06:52:51.006Z,8.57
2018-02-12T06:55:18.476Z,15.67
2018-02-12T06:57:45.932Z,8.90
2018-02-12T07:00:13.521Z,7.13
2018-02-12T07:02:41.019Z,8.77
2018-02-12T07:05:09.249Z,8.17
2018-02-12T07:07:36.959Z,8.93
2018-02-12T07:10:06.180Z,9.00
2018-02-12T07:12:33.701Z,5.63
2018-02-12T07:15:01.187Z,5.67
2018-02-12T07:17:29.445Z,5.27
2018-02-12T07:19:56.945Z,6.17
2018-02-12T07:22:24.409Z,8.77
2018-02-12T07:24:51.861Z,4.97
2018-02-12T07:27:19.397Z,5.80
2018-02-12T07:29:46.886Z,4.07
2018-02-12T07:32:14.394Z,4.90
2018-02-12T07:34:41.885Z,6.50
2018-02-12T07:37:09.421Z,5.27
2018-02-12T07:39:36.910Z,4.60
2018-02-12T07:42:04.386Z,6.60
2018-02-12T07:44:31.848Z,6.03
2018-02-12T07:46:59.305Z,3.73
2018-02-12T07:49:27.028Z,7.00
2018-02-12T07:51:54.579Z,5.40
2018-02-12T07:54:22.054Z,6.83
2018-02-12T07:56:50.339Z,5.53
2018-02-12T07:59:17.859Z,6.87
2018-02-12T08:01:45.774Z,5.97
2018-02-12T08:04:13.272Z,5.00
2018-02-12T08:06:40.792Z,8.00
2018-02-12T08:09:08.304Z,7.77
2018-02-12T08:11:35.763Z,6.63
2018-02-12T08:14:04.024Z,5.40
2018-02-12T08:16:31.540Z,6.93
2018-02-12T08:18:59.062Z,4.40
2018-02-12T08:21:26.542Z,6.17
2018-02-12T08:23:54.017Z,5.10
2018-02-12T08:26:21.513Z,6.50
2018-02-12T08:28:48.983Z,6.60
2018-02-12T08:31:17.213Z,4.90
2018-02-12T08:33:44.779Z,4.90
2018-02-12T08:36:12.293Z,5.03
2018-02-12T08:38:40.025Z,5.63
2018-02-12T08:41:07.501Z,6.00
2018-02-12T08:43:35.014Z,7.00
2018-02-12T08:46:02.556Z,4.50
2018-02-12T08:48:30.023Z,5.33
2018-02-12T08:50:57.684Z,5.77
2018-02-12T08:53:25.246Z,4.17
2018-02-12T08:55:52.745Z,4.47
2018-02-12T08:58:20.338Z,6.27
2018-02-12T09:00:47.808Z,4.90
2018-02-12T09:03:15.274Z,6.50
2018-02-12T09:05:43.536Z,5.20
2018-02-12T09:08:11.809Z,5.33
2018-02-12T09:10:39.331Z,4.77
2018-02-12T09:13:06.790Z,6.17
2018-02-12T09:15:34.277Z,4.53
2018-02-12T09:18:01.808Z,4.30
2018-02-12T09:20:30.109Z,3.90
2018-02-12T09:22:58.328Z,6.10
2018-02-12T09:25:25.855Z,4.53
2018-02-12T09:27:53.365Z,4.40
2018-02-12T09:30:20.916Z,3.83
2018-02-12T09:32:49.158Z,3.80
2018-02-12T09:35:17.435Z,4.17
2018-02-12T09:37:44.945Z,2.60
2018-02-12T09:40:12.436Z,3.90
2018-02-12T09:42:39.939Z,3.17
2018-02-12T09:45:07.491Z,3.37
2018-02-12T09:47:35.021Z,3.20
2018-02-12T09:50:02.458Z,3.60
2018-02-12T09:52:29.949Z,4.40
2018-02-12T09:54:58.191Z,5.10
2018-02-12T09:57:26.428Z,4.37
2018-02-12T09:59:54.719Z,5.80
2018-02-12T10:02:22.182Z,4.63
2018-02-12T10:04:50.445Z,4.37
2018-02-12T10:07:17.960Z,4.13
2018-02-12T10:09:45.602Z,4.30
2018-02-12T10:12:13.860Z,3.77
2018-02-12T10:14:41.348Z,4.70
2018-02-12T10:17:08.833Z,5.27
2018-02-12T10:19:36.393Z,5.37
2018-02-12T10:22:04.675Z,7.40
2018-02-12T10:24:32.139Z,4.90
2018-02-12T10:26:59.641Z,8.80
2018-02-12T10:29:27.125Z,4.63
2018-02-12T10:31:54.581Z,4.17
2018-02-12T10:34:22.084Z,5.63
2018-02-12T10:36:49.610Z,3.93
2018-02-12T10:39:17.179Z,3.40
2018-02-12T10:41:44.656Z,5.53
2018-02-12T10:44:12.152Z,4.63
2018-02-12T10:46:39.638Z,6.03
2018-02-12T10:49:07.127Z,7.90
2018-02-12T10:51:34.679Z,4.73
2018-02-12T10:54:02.200Z,3.87
2018-02-12T10:56:29.721Z,4.23
2018-02-12T10:58:57.186Z,4.63
2018-02-12T11:01:24.682Z,4.30
2018-02-12T11:03:52.199Z,5.10
2018-02-12T11:06:19.686Z,4.23
2018-02-12T11:08:47.174Z,4.03
2018-02-12T11:11:14.712Z,4.97
2018-02-12T11:13:42.297Z,3.70
2018-02-12T11:16:09.791Z,3.70
2018-02-12T11:18:37.252Z,4.47
2018-02-12T11:21:04.767Z,6.53
2018-02-12T11:23:32.241Z,5.53
2018-02-12T11:25:59.779Z,3.40
2018-02-12T11:28:27.265Z,5.27
2018-02-12T11:30:54.738Z,7.13
2018-02-12T11:33:22.256Z,6.27
2018-02-12T11:35:50.501Z,4.43
2018-02-12T11:38:18.001Z,6.53
2018-02-12T11:40:45.530Z,6.63
2018-02-12T11:43:13.812Z,5.20
2018-02-12T11:45:42.097Z,5.00
2018-02-12T11:48:09.616Z,4.67
2018-02-12T11:50:37.854Z,3.47
2018-02-12T11:53:06.206Z,4.53
2018-02-12T11:55:33.797Z,7.93
2018-02-12T11:58:01.295Z,5.80
2018-02-12T12:00:29.589Z,4.93
2018-02-12T12:02:57.989Z,6.60
2018-02-12T12:05:26.240Z,5.43
2018-02-12T12:07:53.710Z,3.10
2018-02-12T12:10:21.279Z,3.70
2018-02-12T12:12:49.534Z,4.53
2018-02-12T12:15:16.993Z,5.17
2018-02-12T12:17:44.535Z,5.40
2018-02-12T12:20:12.025Z,3.50
2018-02-12T12:22:39.480Z,4.63
2018-02-12T12:25:06.929Z,6.20
2018-02-12T12:27:34.387Z,8.00
2018-02-12T12:30:01.857Z,5.17
2018-02-12T12:32:29.369Z,4.23
2018-02-12T12:34:56.893Z,6.37
2018-02-12T12:37:24.385Z,3.80
2018-02-12T12:39:51.877Z,6.43
2018-02-12T12:42:19.341Z,2.83
2018-02-12T12:44:47.562Z,4.43
2018-02-12T12:47:15.078Z,5.57
2018-02-12T12:49:42.545Z,3.50
2018-02-12T12:52:10.003Z,5.70
2018-02-12T12:54:37.517Z,4.30
2018-02-12T12:57:04.973Z,4.03
2018-02-12T12:59:32.468Z,3.73
2018-02-12T13:01:59.912Z,5.30
2018-02-12T13:04:27.426Z,6.10
2018-02-12T13:06:54.885Z,6.80
2018-02-12T13:09:22.345Z,4.60
2018-02-12T13:11:49.974Z,5.63
2018-02-12T13:14:17.485Z,6.40
2018-02-12T13:16:44.937Z,5.60
2018-02-12T13:19:12.397Z,4.73
2018-02-12T13:21:39.908Z,3.93
2018-02-12T13:24:07.384Z,5.13
2018-02-12T13:26:34.838Z,4.87
2018-02-12T13:29:02.292Z,2.60
2018-02-12T13:31:30.506Z,4.33
2018-02-12T13:33:58.728Z,7.57
2018-02-12T13:36:26.182Z,9.20
2018-02-12T13:38:54.401Z,7.97
2018-02-12T13:41:21.869Z,10.07
2018-02-12T13:43:49.318Z,9.37
2018-02-12T13:46:16.876Z,9.07
2018-02-12T13:48:44.321Z,6.00
2018-02-12T13:51:11.839Z,4.67
2018-02-12T13:53:39.316Z,3.43
2018-02-12T13:56:06.780Z,4.87
2018-02-12T13:58:34.228Z,4.07
2018-02-12T14:01:02.481Z,7.60
2018-02-12T14:03:29.965Z,6.07
2018-02-12T14:05:57.418Z,10.60
2018-02-12T14:08:24.873Z,7.73
2018-02-12T14:10:53.125Z,5.20
2018-02-12T14:13:20.714Z,5.83
2018-02-12T14:15:48.189Z,7.97
2018-02-12T14:18:15.637Z,9.77
2018-02-12T14:20:43.180Z,7.87
2018-02-12T14:23:11.614Z,8.87
2018-02-12T14:25:39.893Z,9.37
2018-02-12T14:28:07.340Z,6.40
2018-02-12T14:30:34.799Z,6.67
2018-02-12T14:33:02.299Z,6.97
2018-02-12T14:35:29.771Z,8.40
2018-02-12T14:37:57.317Z,7.50
2018-02-12T14:40:25.534Z,6.17
2018-02-12T14:42:53.075Z,7.13
2018-02-12T14:45:20.633Z,7.33
2018-02-12T14:47:48.108Z,6.50
2018-02-12T14:50:15.557Z,6.77
2018-02-12T14:52:43.110Z,5.10
2018-02-12T14:55:10.602Z,4.00
2018-02-12T14:57:38.146Z,5.33
2018-02-12T15:00:05.610Z,4.07
2018-02-12T15:02:33.068Z,6.77
2018-02-12T15:05:00.529Z,4.70
2018-02-12T15:07:28.790Z,11.23
2018-02-12T15:09:56.257Z,4.97
2018-02-12T15:12:24.505Z,5.27
2018-02-12T15:14:52.741Z,6.40
2018-02-12T15:17:20.202Z,9.27
2018-02-12T15:19:47.758Z,7.37
2018-02-12T15:22:15.204Z,6.90
2018-02-12T15:24:42.655Z,10.97
2018-02-12T15:27:10.873Z,5.67
2018-02-12T15:29:38.332Z,8.60
2018-02-12T15:32:07.654Z,9.83
2018-02-12T15:34:36.305Z,8.40
2018-02-12T15:37:03.856Z,9.30
2018-02-12T15:39:31.305Z,9.67
2018-02-12T15:41:58.865Z,9.20
2018-02-12T15:44:26.313Z,6.90
2018-02-12T15:46:53.770Z,8.33
2018-02-12T15:49:21.315Z,6.83
2018-02-12T15:51:48.761Z,6.40
2018-02-12T15:54:16.216Z,7.00
2018-02-12T15:56:43.677Z,8.90
2018-02-12T15:59:11.126Z,6.50
2018-02-12T16:01:38.666Z,8.27
2018-02-12T16:04:07.056Z,9.63
2018-02-12T16:06:36.165Z,6.87
2018-02-12T16:09:03.634Z,7.63
2018-02-12T16:11:31.087Z,8.00
2018-02-12T16:13:58.541Z,9.10
2018-02-12T16:16:26.068Z,9.33
2018-02-12T16:18:53.525Z,7.00
2018-02-12T16:21:20.984Z,8.27
2018-02-12T16:23:48.507Z,7.27
2018-02-12T16:26:16.058Z,11.20
2018-02-12T16:28:43.506Z,7.90
2018-02-12T16:31:10.966Z,7.10
2018-02-12T16:33:39.189Z,5.03
2018-02-12T16:36:07.257Z,5.33
2018-02-12T16:38:34.993Z,8.10
2018-02-12T16:41:02.788Z,5.90
2018-02-12T16:43:30.346Z,8.83
2018-02-12T16:45:57.881Z,8.53
2018-02-12T16:48:25.490Z,8.10
2018-02-12T16:50:52.936Z,10.13
2018-02-12T16:53:20.441Z,9.43
2018-02-12T16:55:48.001Z,8.83
2018-02-12T16:58:16.225Z,8.63
2018-02-12T17:00:43.677Z,8.27
2018-02-12T17:03:11.147Z,7.17
2018-02-12T17:05:38.601Z,7.73
2018-02-12T17:08:06.753Z,10.27
2018-02-12T17:10:35.523Z,10.23
2018-02-12T17:13:03.734Z,8.70
2018-02-12T17:15:31.185Z,10.87
2018-02-12T17:17:58.697Z,13.50
2018-02-12T17:20:26.917Z,11.87
2018-02-12T17:22:54.394Z,16.13
2018-02-12T17:25:21.945Z,13.10
2018-02-12T17:27:49.496Z,14.87
2018-02-12T17:30:18.645Z,14.13
2018-02-12T17:32:46.098Z,12.33
2018-02-12T17:35:13.549Z,14.87
2018-02-12T17:37:41.010Z,11.20
2018-02-12T17:40:08.469Z,10.67
2018-02-12T17:42:36.708Z,11.03
2018-02-12T17:45:05.537Z,11.37
2018-02-12T17:47:33.426Z,14.67
2018-02-12T17:50:00.893Z,13.07
2018-02-12T17:52:28.357Z,12.93
2018-02-12T17:54:55.993Z,13.67
2018-02-12T17:57:24.255Z,14.50
2018-02-12T17:59:51.800Z,14.10
2018-02-12T18:02:19.262Z,20.43
2018-02-12T18:04:47.502Z,24.03
2018-02-12T18:07:14.974Z,23.70
2018-02-12T18:09:42.429Z,27.13
2018-02-12T18:12:09.983Z,20.93
2018-02-12T18:14:37.470Z,20.90
2018-02-12T18:17:05.901Z,18.70
2018-02-12T18:19:34.133Z,17.10
2018-02-12T18:22:01.597Z,17.90
2018-02-12T18:24:29.153Z,19.73
2018-02-12T18:26:56.625Z,24.37
2018-02-12T18:29:24.851Z,29.03
2018-02-12T18:31:52.324Z,25.37
2018-02-12T18:34:19.875Z,21.13
2018-02-12T18:36:48.143Z,15.37
2018-02-12T18:39:15.682Z,11.60
2018-02-12T18:41:43.233Z,11.90
2018-02-12T18:44:10.689Z,15.40
2018-02-12T18:46:39.047Z,13.57
2018-02-12T18:49:07.530Z,8.80
2018-02-12T18:51:35.637Z,9.03
2018-02-12T18:54:03.094Z,8.10
2018-02-12T18:56:30.663Z,11.40
2018-02-12T18:58:58.214Z,12.53
2018-02-12T19:01:25.689Z,16.23
2018-02-12T19:03:53.917Z,11.93
2018-02-12T19:06:21.377Z,17.83
2018-02-12T19:08:49.802Z,12.43
2018-02-12T19:11:17.297Z,14.57
2018-02-12T19:13:44.769Z,15.23
2018-02-12T19:16:12.245Z,17.00
2018-02-12T19:18:39.711Z,16.47
2018-02-12T19:21:07.173Z,22.30
2018-02-12T19:23:34.930Z,14.80
2018-02-12T19:26:02.670Z,17.63
2018-02-12T19:28:30.153Z,12.47
2018-02-12T19:30:57.618Z,13.77
2018-02-12T19:33:25.837Z,9.47
2018-02-12T19:35:53.312Z,9.90
2018-02-12T19:38:20.938Z,11.43
2018-02-12T19:40:49.169Z,10.43
2018-02-12T19:43:17.402Z,10.87
2018-02-12T19:45:44.903Z,14.83
2018-02-12T19:48:12.377Z,15.77
2018-02-12T19:50:39.853Z,15.83
2018-02-12T19:53:08.102Z,20.63
2018-02-12T19:55:35.585Z,13.17
2018-02-12T19:58:03.055Z,14.33
2018-02-12T20:00:30.526Z,14.57
2018-02-12T20:02:58.031Z,14.03
2018-02-12T20:05:25.510Z,13.07
2018-02-12T20:07:56.206Z,11.90
2018-02-12T20:10:23.658Z,15.43
2018-02-12T20:12:51.229Z,14.90
2018-02-12T20:15:19.457Z,13.10
2018-02-12T20:17:46.952Z,18.87
2018-02-12T20:20:15.185Z,13.37
2018-02-12T20:22:42.677Z,16.13
2018-02-12T20:25:10.201Z,17.10
2018-02-12T20:27:37.674Z,16.97
2018-02-12T20:30:05.777Z,17.27
2018-02-12T20:32:33.266Z,14.23
2018-02-12T20:35:00.753Z,20.63
2018-02-12T20:37:28.248Z,23.87
2018-02-12T20:39:56.491Z,22.27
2018-02-12T20:42:23.962Z,23.57
2018-02-12T20:44:51.476Z,22.50
2018-02-12T20:47:19.056Z,21.87
2018-02-12T20:49:47.306Z,21.47
2018-02-12T20:52:14.965Z,20.40
2018-02-12T20:54:43.244Z,18.90
2018-02-12T20:57:10.711Z,17.90
2018-02-12T20:59:38.234Z,18.97
2018-02-12T21:02:05.758Z,23.67
2018-02-12T21:04:34.022Z,22.60
2018-02-12T21:07:01.595Z,21.00
2018-02-12T21:09:29.058Z,19.17
2018-02-12T21:11:56.559Z,17.43
2018-02-12T21:14:24.038Z,19.00
2018-02-12T21:16:51.502Z,19.77
2018-02-12T21:19:19.001Z,22.23
2018-02-12T21:21:46.465Z,33.60
2018-02-12T21:24:13.933Z,37.10
2018-02-12T21:26:41.455Z,31.47
2018-02-12T21:29:08.929Z,24.93
2018-02-12T21:31:36.396Z,29.27
2018-02-12T21:34:03.854Z,24.20
2018-02-12T21:36:31.332Z,28.47
2018-02-12T21:38:58.801Z,19.87
2018-02-12T21:41:27.043Z,20.87
2018-02-12T21:43:54.508Z,19.40
2018-02-12T21:46:22.117Z,18.53
2018-02-12T21:50:26.374Z,20.07
2018-02-12T21:52:53.842Z,19.07
2018-02-12T21:55:21.306Z,18.53
2018-02-12T21:57:48.829Z,19.03
2018-02-12T22:00:16.285Z,19.93
2018-02-12T22:02:43.793Z,15.50
2018-02-12T22:05:11.261Z,14.73
2018-02-12T22:07:38.754Z,14.37
2018-02-12T22:10:06.337Z,16.80
2018-02-12T22:12:33.801Z,20.30
2018-02-12T22:15:01.301Z,25.00
2018-02-12T22:17:28.789Z,30.77
2018-02-12T22:19:56.249Z,19.37
2018-02-12T22:22:23.708Z,20.17
2018-02-12T22:24:51.175Z,19.80
2018-02-12T22:27:19.407Z,20.87
2018-02-12T22:29:46.873Z,17.53
2018-02-12T22:32:14.338Z,19.40
2018-02-12T22:34:42.600Z,24.93
2018-02-12T22:37:10.092Z,22.20
2018-02-12T22:39:37.561Z,21.03
2018-02-12T22:42:05.041Z,28.83
2018-02-12T22:44:32.502Z,23.70
2018-02-12T22:46:59.982Z,25.00
2018-02-12T22:49:27.441Z,22.50
2018-02-12T22:51:55.670Z,21.93
2018-02-12T22:54:23.133Z,23.17
2018-02-12T22:56:50.658Z,28.13
2018-02-12T22:59:18.140Z,26.47
2018-02-12T23:01:45.602Z,26.33
2018-02-12T23:04:13.093Z,23.40
2018-02-12T23:06:40.585Z,26.73
2018-02-12T23:09:08.050Z,39.23
2018-02-12T23:11:35.550Z,28.60
2018-02-12T23:14:03.021Z,30.83
2018-02-12T23:16:30.485Z,27.17
2018-02-12T23:18:57.973Z,43.87
2018-02-12T23:21:25.465Z,89.37
2018-02-12T23:23:52.949Z,52.13
2018-02-12T23:26:20.414Z,26.93
2018-02-12T23:28:47.878Z,34.00
2018-02-12T23:31:15.337Z,27.80
2018-02-12T23:33:43.616Z,51.00
2018-02-12T23:36:11.182Z,41.60
2018-02-12T23:38:38.648Z,39.40
2018-02-12T23:41:06.137Z,55.73
2018-02-12T23:43:33.613Z,45.53
2018-02-12T23:46:01.078Z,42.50
2018-02-12T23:48:28.589Z,34.93
2018-02-12T23:50:56.071Z,32.03
2018-02-12T23:53:23.549Z,30.30
2018-02-12T23:55:51.033Z,32.97
2018-02-12T23:58:18.493Z,32.13
